Angelica, Wisconsin
Current Conditions -  °F | °C
As of 5:53 AM on Saturday 25 Oct 2014 (Local Time) from KGRB Reporting Station
Haze Haze  
Wind Chill: 54°   Ceiling: Unl
Heat Index: 54°   Visibility: 4mi
Dew Point: 52°   Wind: 10mph
Humidity: 93%   Direction: 260°W
Pressure: 29.82"   Gusts: NA
Location:  44.6594°N, 88.2945°W
Report Text: KGRB 251053Z 26009KT 4SM BR CLR 12/11 A2982 RMK AO2 SLP100 T01220111
Loading
Personal Weather Stations






























Interactive Weather Map
Tropical Storm Tracking
New forecast layout! Learn more

10-Day Weather Forecast

Advertisements
Track Severe Weather on mobile